KPGD

Punta Gorda Airport

Airport
ICAO code
KPGD
Summary
ICAO Region
NAM
ICAO Territory
Location

Punta Gorda, Florida,

Coordinates
26° 55' 8" N , 81° 59' 29" W
KCC
Metar
KPGD 210753Z AUTO 11003KT 10SM CLR 26/24 A3006 RMK AO2 SLP177 T02560239

Description

Punta Gorda Airport is a public use airport located 6 km southeast of the central business district of Punta Gorda, in Charlotte County, Florida.

Climatology

Humid “subtropical” climate (Köppen climate classification Cfa) - characterized by hot, humid summers and cool winters. Significant amounts of precipitation occur in all seasons in most areas.

Runways

Designator Length Width Surface Rops
9/27 1399 46 ASP Yes/Yes
15/33 1446 46 ASP Yes/Yes
4/22 2041 46 ASPH-G Yes/Yes

Airport map

Aerial View

SKYbrary Partners:

Safety knowledge contributed by: